地図

経路データ

SID SEASON NUMBER BASIN SUBBASIN NAME ISO_TIME NATURE LAT LON WMO_WIND WMO_PRES WMO_AGENCY TRACK_TYPE DIST2LAND LANDFALL IFLAG USA_AGENCY USA_ATCF_ID USA_LAT USA_LON USA_RECORD USA_STATUS USA_WIND USA_PRES USA_SSHS USA_R34_NE USA_R34_SE USA_R34_SW USA_R34_NW USA_R50_NE USA_R50_SE USA_R50_SW USA_R50_NW USA_R64_NE USA_R64_SE USA_R64_SW USA_R64_NW USA_POCI USA_ROCI USA_RMW USA_EYE TOKYO_LAT TOKYO_LON TOKYO_GRADE TOKYO_WIND TOKYO_PRES TOKYO_R50_DIR TOKYO_R50_LONG TOKYO_R50_SHORT TOKYO_R30_DIR TOKYO_R30_LONG TOKYO_R30_SHORT TOKYO_LAND CMA_LAT CMA_LON CMA_CAT CMA_WIND CMA_PRES HKO_LAT HKO_LON HKO_CAT HKO_WIND HKO_PRES NEWDELHI_LAT NEWDELHI_LON NEWDELHI_GRADE NEWDELHI_WIND NEWDELHI_PRES NEWDELHI_CI NEWDELHI_DP NEWDELHI_POCI REUNION_LAT REUNION_LON REUNION_TYPE REUNION_WIND REUNION_PRES REUNION_TNUM REUNION_CI REUNION_RMW REUNION_R34_NE REUNION_R34_SE REUNION_R34_SW REUNION_R34_NW REUNION_R50_NE REUNION_R50_SE REUNION_R50_SW REUNION_R50_NW REUNION_R64_NE REUNION_R64_SE REUNION_R64_SW REUNION_R64_NW BOM_LAT BOM_LON BOM_TYPE BOM_WIND BOM_PRES BOM_TNUM BOM_CI BOM_RMW BOM_R34_NE BOM_R34_SE BOM_R34_SW BOM_R34_NW BOM_R50_NE BOM_R50_SE BOM_R50_SW BOM_R50_NW BOM_R64_NE BOM_R64_SE BOM_R64_SW BOM_R64_NW BOM_ROCI BOM_POCI BOM_EYE BOM_POS_METHOD BOM_PRES_METHOD NADI_LAT NADI_LON NADI_CAT NADI_WIND NADI_PRES WELLINGTON_LAT WELLINGTON_LON WELLINGTON_WIND WELLINGTON_PRES DS824_LAT DS824_LON DS824_STAGE DS824_WIND DS824_PRES TD9636_LAT TD9636_LON TD9636_STAGE TD9636_WIND TD9636_PRES TD9635_LAT TD9635_LON TD9635_WIND TD9635_PRES TD9635_ROCI NEUMANN_LAT NEUMANN_LON NEUMANN_CLASS NEUMANN_WIND NEUMANN_PRES MLC_LAT MLC_LON MLC_CLASS MLC_WIND MLC_PRES USA_GUST BOM_GUST BOM_GUST_PER REUNION_GUST REUNION_GUST_PER USA_SEAHGT USA_SEARAD_NE USA_SEARAD_SE USA_SEARAD_SW USA_SEARAD_NW STORM_SPEED STORM_DIR
1989277N13257 1989 110 EP MM NOT_NAMED 1989-10-03 12:00:00 TS 13.0000 -103.000 25 hurdat_epa main 522 521 O_____________ hurdat_epa EP221989 13.0000 -103.000 TD 25 -1 20 286
1989277N13257 1989 110 EP MM NOT_NAMED 1989-10-03 15:00:00 TS 13.2735 -103.969 main 545 545 P_____________ EP221989 13.2735 -103.969 TD 27 -1 18 286
1989277N13257 1989 110 EP MM NOT_NAMED 1989-10-03 18:00:00 TS 13.5000 -104.800 30 hurdat_epa main 553 549 O_____________ hurdat_epa EP221989 13.5000 -104.800 TD 30 -1 14 286
1989277N13257 1989 110 EP MM NOT_NAMED 1989-10-03 21:00:00 TS 13.6571 -105.390 main 553 553 P_____________ EP221989 13.6571 -105.390 TD 30 -1 10 287
1989277N13257 1989 110 EP MM NOT_NAMED 1989-10-04 00:00:00 TS 13.8000 -105.800 30 hurdat_epa main 560 555 O_____________ hurdat_epa EP221989 13.8000 -105.800 TD 30 -1 8 293
1989277N13257 1989 110 EP MM NOT_NAMED 1989-10-04 03:00:00 TS 13.9849 -106.168 main 561 553 P_____________ EP221989 13.9849 -106.167 TD 30 -1 7 304
1989277N13257 1989 110 EP MM NOT_NAMED 1989-10-04 06:00:00 TS 14.2000 -106.400 30 hurdat_epa main 553 541 O_____________ hurdat_epa EP221989 14.2000 -106.400 TD 30 -1 6 326
1989277N13257 1989 110 EP MM NOT_NAMED 1989-10-04 09:00:00 TS 14.4499 -106.495 main 541 514 P_____________ EP221989 14.4499 -106.495 TD 30 -1 5 349
1989277N13257 1989 110 EP MM NOT_NAMED 1989-10-04 12:00:00 TS 14.7000 -106.500 30 hurdat_epa main 514 496 O_____________ hurdat_epa EP221989 14.7000 -106.500 TD 30 -1 5 357
1989277N13257 1989 110 EP MM NOT_NAMED 1989-10-04 15:00:00 TS 14.9225 -106.500 main 496 479 P_____________ EP221989 14.9225 -106.500 TD 30 -1 4 0
1989277N13257 1989 110 EP MM NOT_NAMED 1989-10-04 18:00:00 TS 15.1000 -106.500 30 hurdat_epa main 479 471 O_____________ hurdat_epa EP221989 15.1000 -106.500 TD 30 -1 3 0
1989277N13257 1989 110 EP MM NOT_NAMED 1989-10-04 21:00:00 TS 15.2300 -106.527 main 471 463 P_____________ EP221989 15.2300 -106.527 TD 30 -1 2 333
1989277N13257 1989 110 EP MM NOT_NAMED 1989-10-05 00:00:00 TS 15.3000 -106.600 30 hurdat_epa main 470 470 O_____________ hurdat_epa EP221989 15.3000 -106.600 TD 30 -1 2 296
1989277N13257 1989 110 EP MM NOT_NAMED 1989-10-05 03:00:00 TS 15.3225 -106.728 main 478 478 P_____________ EP221989 15.3225 -106.728 TD 30 -1 3 270
1989277N13257 1989 110 EP MM NOT_NAMED 1989-10-05 06:00:00 TS 15.3000 -106.900 30 hurdat_epa main 490 490 O_____________ hurdat_epa EP221989 15.3000 -106.900 TD 30 -1 4 260
1989277N13257 1989 110 EP MM NOT_NAMED 1989-10-05 09:00:00 TS 15.2575 -107.100 main 500 500 P_____________ EP221989 15.2575 -107.100 TD 27 -1 4 255
1989277N13257 1989 110 EP MM NOT_NAMED 1989-10-05 12:00:00 TS 15.2000 -107.300 25 hurdat_epa main 520 520 O_____________ hurdat_epa EP221989 15.2000 -107.300 TD 25 -1 3 253
1989277N13257 1989 110 EP MM NOT_NAMED 1989-10-05 15:00:00 TS 15.1574 -107.442 main 525 525 P_____________ EP221989 15.1574 -107.442 TD 25 -1 3 251
1989277N13257 1989 110 EP MM NOT_NAMED 1989-10-05 18:00:00 TS 15.1000 -107.600 25 hurdat_epa main 546 546 O_____________ hurdat_epa EP221989 15.1000 -107.600 TD 25 -1 4 249
1989277N13257 1989 110 EP MM NOT_NAMED 1989-10-05 21:00:00 TS 15.0150 -107.820 main 567 567 P_____________ EP221989 15.0150 -107.820 TD 25 -1 5 248
1989277N13257 1989 110 EP MM NOT_NAMED 1989-10-06 00:00:00 TS 14.9000 -108.100 25 hurdat_epa main 595 595 O_____________ hurdat_epa EP221989 14.9000 -108.100 TD 25 -1 6 247
1989277N13257 1989 110 EP MM NOT_NAMED 1989-10-06 03:00:00 TS 14.7650 -108.427 main 623 623 P_____________ EP221989 14.7650 -108.427 TD 25 -1 7 246
1989277N13257 1989 110 EP MM NOT_NAMED 1989-10-06 06:00:00 TS 14.6000 -108.800 25 hurdat_epa main 667 667 O_____________ hurdat_epa EP221989 14.6000 -108.800 TD 25 -1 8 244
1989277N13257 1989 110 EP MM NOT_NAMED 1989-10-06 09:00:00 TS 14.3925 -109.200 main 712 712 P_____________ EP221989 14.3925 -109.200 TD 25 -1 9 243
1989277N13257 1989 110 EP MM NOT_NAMED 1989-10-06 12:00:00 TS 14.2000 -109.600 25 hurdat_epa main 757 757 O_____________ hurdat_epa EP221989 14.2000 -109.600 TD 25 -1 8 247
1989277N13257 1989 110 EP MM NOT_NAMED 1989-10-06 15:00:00 TS 14.0774 -109.950 main 787 787 P_____________ EP221989 14.0774 -109.950 TD 25 -1 7 254
1989277N13257 1989 110 EP MM NOT_NAMED 1989-10-06 18:00:00 TS 14.0000 -110.300 25 hurdat_epa main 825 825 O_____________ hurdat_epa EP221989 14.0000 -110.300 TD 25 -1 7 258
1989277N13257 1989 110 EP MM NOT_NAMED 1989-10-06 21:00:00 TS 13.9199 -110.685 main 864 864 P_____________ EP221989 13.9199 -110.685 TD 25 -1 8 263
1989277N13257 1989 110 EP MM NOT_NAMED 1989-10-07 00:00:00 TS 13.9000 -111.100 25 hurdat_epa main 894 894 O_____________ hurdat_epa EP221989 13.9000 -111.100 TD 25 -1 8 273
1989277N13257 1989 110 EP MM NOT_NAMED 1989-10-07 03:00:00 TS 13.9700 -111.550 main 917 917 P_____________ EP221989 13.9700 -111.550 TD 25 -1 9 283
1989277N13257 1989 110 EP MM NOT_NAMED 1989-10-07 06:00:00 TS 14.1000 -112.000 25 hurdat_epa main 948 948 O_____________ hurdat_epa EP221989 14.1000 -112.000 TD 25 -1 9 288
1989277N13257 1989 110 EP MM NOT_NAMED 1989-10-07 09:00:00 TS 14.2424 -112.400 main 974 966 P_____________ EP221989 14.2424 -112.400 TD 25 -1 8 291
1989277N13257 1989 110 EP MM NOT_NAMED 1989-10-07 12:00:00 TS 14.4000 -112.800 25 hurdat_epa main 993 987 O_____________ hurdat_epa EP221989 14.4000 -112.800 TD 25 -1 9 292
1989277N13257 1989 110 EP MM NOT_NAMED 1989-10-07 15:00:00 TS 14.5800 -113.250 main 987 987 P_____________ EP221989 14.5800 -113.250 TD 25 -1 9 289
1989277N13257 1989 110 EP MM NOT_NAMED 1989-10-07 18:00:00 TS 14.7000 -113.700 25 hurdat_epa main 996 996 O_____________ hurdat_epa EP221989 14.7000 -113.700 TD 25 -1 8 278
1989277N13257 1989 110 EP MM NOT_NAMED 1989-10-07 21:00:00 TS 14.7024 -114.108 main 1013 1013 P_____________ EP221989 14.7024 -114.108 TD 25 -1 8 263
1989277N13257 1989 110 EP MM NOT_NAMED 1989-10-08 00:00:00 TS 14.6000 -114.500 25 hurdat_epa main 1042 1042 O_____________ hurdat_epa EP221989 14.6000 -114.500 TD 25 -1 8 250
1989277N13257 1989 110 EP MM NOT_NAMED 1989-10-08 03:00:00 TS 14.4202 -114.898 main 1081 1081 P_____________ EP221989 14.4202 -114.898 TD 25 -1 9 243
1989277N13257 1989 110 EP MM NOT_NAMED 1989-10-08 06:00:00 TS 14.2000 -115.300 25 hurdat_epa main 1121 O_____________ hurdat_epa EP221989 14.2000 -115.300 TD 25 -1 9 241

IBTrACS Databaseについて

本データベースは、米国NOAAが公開する1842年以降の世界の熱帯低気圧のベストトラックデータアーカイブInternational Best Track Archive for Climate Stewardship (IBTrACS)を、ウェブで閲覧しやすい形式に変換したものです。

最終更新日:2021-10-08